Airfield :
LOGIN :

Register | Disclaimer

   EN    FR    IT 

 










Legend :    VFR   Marginal VFR   IFR   Intensive IFR   Very Intensive IFR
Visi :
Ceiling :
>= 8 km
>= 3000ft
5 to 8 km
1000 to 3000 ft
1500m to 5 km
500 to 1000 ft
800 to 1500m
200 to 500 ft
< 800m
< 200 ft
Symbols :   Thunderstorms  Fog  Heavy snow  Heavy precipitations  Wind > 20 kt
SIGMETs :     Misc.  Thunderstorms  Icing  Turbulence  Mountain Waves  Volcanic Ashes







- Airport Elevation : 2044 ft


ETSA - Landsberg-Lech AB

CURRENT METAR :
  • 270220Z 28005KT 1500 SN BR OVC004 00/M00 Q1011 AMB

EXPIRED METARs :
  • 270120Z 29003KT 2000 -SN BR OVC004 00/M00 Q1011 YLO
  • 270020Z 22001KT 3000 -SN BR OVC006 00/00 Q1010 YLO

TAF TAF ETSA
Valid from the 26 at 23:00 until the 27 at 11:00 UTC


262205Z 2623/2711 03005KT 5000 -RASN BKN007 OVC015
TEMPO 2623/2711 VRB03KT 3000 SNRA OVC003
PROB30 2702/2708 28007KT 1200 +SNRA OVC001 BY ETGL
No reported NOTAMs for that airfield.



MET'MAP, your aeronautical weather chart ! - Copyright ORBIFLY December 2007 - Disclaimer

ORBIFLY MET'MAP TEAM :

Programming & Development : Alexandra Zaïnal
Concept & Development : Baudouin d'Aumeries
Co-Development & Prog : Marc-Olivier Méhu
Technical & hardware support : Manuel Goepfert

Contact : metmap@orbifly.com




SOURCES & CREDITS :

   NOAA